createdAt,value
2017-11-28T00:00:40.357Z,1.02
2017-11-28T00:01:42.923Z,1.30
2017-11-28T00:02:45.440Z,1.15
2017-11-28T00:03:47.954Z,1.20
2017-11-28T00:04:51.198Z,1.05
2017-11-28T00:05:54.402Z,1.10
2017-11-28T00:06:56.855Z,1.00
2017-11-28T00:08:00.070Z,1.20
2017-11-28T00:09:02.641Z,1.20
2017-11-28T00:10:05.183Z,1.00
2017-11-28T00:11:07.656Z,1.30
2017-11-28T00:12:10.128Z,1.50
2017-11-28T00:13:12.650Z,1.90
2017-11-28T00:14:15.101Z,1.00
2017-11-28T00:15:17.562Z,1.20
2017-11-28T00:16:20.037Z,1.10
2017-11-28T00:17:22.511Z,1.20
2017-11-28T00:18:24.966Z,1.08
2017-11-28T00:19:27.447Z,1.15
2017-11-28T00:20:29.908Z,1.20
2017-11-28T00:21:33.135Z,1.50
2017-11-28T00:22:35.571Z,1.00
2017-11-28T00:23:38.822Z,1.20
2017-11-28T00:24:42.059Z,1.10
2017-11-28T00:25:45.302Z,1.15
2017-11-28T00:26:47.796Z,1.23
2017-11-28T00:27:50.241Z,1.20
2017-11-28T00:28:53.526Z,1.05
2017-11-28T00:29:56.028Z,1.02
2017-11-28T00:30:58.483Z,1.20
2017-11-28T00:32:00.937Z,1.20
2017-11-28T00:33:03.428Z,1.25
2017-11-28T00:34:05.891Z,1.37
2017-11-28T00:35:09.884Z,1.20
2017-11-28T00:36:13.115Z,1.00
2017-11-28T00:37:16.352Z,1.05
2017-11-28T00:38:18.821Z,1.00
2017-11-28T00:39:21.328Z,1.05
2017-11-28T00:40:23.776Z,1.20
2017-11-28T00:41:26.320Z,1.10
2017-11-28T00:42:28.770Z,1.10
2017-11-28T00:43:32.002Z,0.90
2017-11-28T00:44:34.463Z,1.20
2017-11-28T00:45:36.975Z,1.20
2017-11-28T00:46:40.202Z,1.15
2017-11-28T00:47:43.423Z,1.27
2017-11-28T00:48:45.896Z,1.30
2017-11-28T00:49:48.350Z,1.40
2017-11-28T00:50:50.819Z,1.15
2017-11-28T00:51:53.266Z,1.08
2017-11-28T00:52:55.718Z,1.12
2017-11-28T00:53:58.214Z,1.40
2017-11-28T00:55:00.695Z,1.17
2017-11-28T00:56:03.166Z,1.12
2017-11-28T00:57:05.607Z,1.00
2017-11-28T00:58:08.103Z,0.95
2017-11-28T00:59:11.369Z,1.20
2017-11-28T01:00:13.835Z,1.20
2017-11-28T01:01:16.283Z,1.15
2017-11-28T01:02:18.733Z,1.08
2017-11-28T01:03:21.178Z,0.95
2017-11-28T01:04:23.685Z,1.00
2017-11-28T01:05:26.149Z,1.10
2017-11-28T01:06:28.663Z,1.17
2017-11-28T01:07:31.138Z,1.15
2017-11-28T01:08:34.737Z,1.30
2017-11-28T01:09:37.335Z,1.40
2017-11-28T01:10:40.560Z,1.00
2017-11-28T01:11:43.767Z,1.40
2017-11-28T01:12:46.252Z,1.00
2017-11-28T01:13:48.691Z,1.20
2017-11-28T01:14:51.141Z,1.00
2017-11-28T01:15:53.598Z,1.00
2017-11-28T01:16:56.807Z,1.08
2017-11-28T01:17:59.288Z,0.95
2017-11-28T01:19:01.731Z,1.00
2017-11-28T01:20:04.191Z,1.02
2017-11-28T01:21:06.644Z,1.00
2017-11-28T01:22:09.873Z,1.20
2017-11-28T01:23:13.144Z,1.00
2017-11-28T01:24:15.602Z,1.20
2017-11-28T01:25:18.048Z,1.25
2017-11-28T01:26:20.495Z,1.27
2017-11-28T01:27:23.739Z,0.95
2017-11-28T01:28:26.997Z,1.30
2017-11-28T01:29:30.218Z,0.90
2017-11-28T01:30:33.454Z,0.80
2017-11-28T01:31:36.003Z,0.90
2017-11-28T01:32:39.228Z,0.90
2017-11-28T01:33:42.478Z,0.82
2017-11-28T01:34:45.733Z,0.88
2017-11-28T01:35:48.969Z,0.90
2017-11-28T01:36:52.198Z,1.08
2017-11-28T01:37:54.655Z,1.10
2017-11-28T01:38:57.117Z,0.80
2017-11-28T01:39:59.583Z,1.00
2017-11-28T01:41:02.839Z,1.30
2017-11-28T01:42:05.302Z,0.80
2017-11-28T01:43:07.784Z,1.17
2017-11-28T01:44:10.995Z,0.90
2017-11-28T01:45:14.255Z,1.00
2017-11-28T01:46:17.476Z,0.90
2017-11-28T01:47:19.939Z,1.00
2017-11-28T01:48:22.379Z,1.10
2017-11-28T01:49:24.884Z,1.10
2017-11-28T01:50:28.114Z,1.33
2017-11-28T01:51:31.358Z,1.05
2017-11-28T01:52:34.575Z,1.00
2017-11-28T01:53:37.035Z,1.08
2017-11-28T01:54:39.478Z,1.02
2017-11-28T01:55:41.975Z,1.10
2017-11-28T01:56:44.424Z,0.90
2017-11-28T01:57:46.880Z,1.10
2017-11-28T01:58:49.337Z,0.98
2017-11-28T01:59:52.601Z,0.90
2017-11-28T02:00:55.070Z,1.00
2017-11-28T02:01:57.509Z,1.00
2017-11-28T02:02:59.959Z,0.93
2017-11-28T02:04:03.211Z,1.15
2017-11-28T02:05:06.419Z,0.95
2017-11-28T02:06:08.936Z,1.00
2017-11-28T02:07:11.383Z,0.93
2017-11-28T02:08:13.835Z,0.95
2017-11-28T02:09:16.286Z,1.00
2017-11-28T02:10:18.788Z,1.17
2017-11-28T02:11:21.260Z,1.00
2017-11-28T02:12:23.728Z,1.00
2017-11-28T02:13:26.184Z,1.10
2017-11-28T02:14:28.634Z,0.90
2017-11-28T02:15:31.088Z,0.90
2017-11-28T02:16:34.308Z,1.10
2017-11-28T02:17:38.304Z,1.15
2017-11-28T02:18:40.770Z,1.00
2017-11-28T02:19:43.228Z,1.00
2017-11-28T02:20:45.686Z,1.10
2017-11-28T02:21:48.125Z,1.12
2017-11-28T02:22:50.595Z,1.00
2017-11-28T02:23:53.060Z,1.00
2017-11-28T02:24:55.512Z,0.90
2017-11-28T02:25:58.000Z,0.90
2017-11-28T02:27:00.458Z,1.02
2017-11-28T02:28:02.911Z,0.90
2017-11-28T02:29:05.390Z,0.85
2017-11-28T02:30:07.849Z,0.80
2017-11-28T02:31:10.341Z,0.80
2017-11-28T02:32:12.799Z,0.80
2017-11-28T02:33:15.259Z,0.80
2017-11-28T02:34:18.468Z,1.00
2017-11-28T02:35:21.716Z,0.88
2017-11-28T02:36:24.276Z,0.90
2017-11-28T02:37:26.741Z,0.98
2017-11-28T02:38:29.223Z,1.08
2017-11-28T02:39:32.469Z,1.00
2017-11-28T02:40:47.784Z,1.00
2017-11-28T02:41:50.237Z,1.00
2017-11-28T02:42:52.705Z,1.10
2017-11-28T02:44:12.934Z,1.00
2017-11-28T02:45:15.370Z,1.00
2017-11-28T02:46:21.455Z,1.02
2017-11-28T02:47:24.691Z,1.00
2017-11-28T02:48:27.151Z,0.95
2017-11-28T02:49:41.067Z,0.88
2017-11-28T02:50:43.555Z,1.10
2017-11-28T02:51:54.871Z,1.10
2017-11-28T02:52:57.338Z,0.93
2017-11-28T02:53:59.811Z,1.08
2017-11-28T02:55:14.359Z,0.90
2017-11-28T02:56:16.868Z,0.90
2017-11-28T02:57:19.356Z,1.10
2017-11-28T02:58:49.227Z,1.12
2017-11-28T02:59:52.462Z,0.90
2017-11-28T03:01:05.451Z,1.00
2017-11-28T03:02:08.675Z,0.90
2017-11-28T03:03:11.144Z,1.10
2017-11-28T03:04:13.598Z,1.00
2017-11-28T03:05:16.052Z,0.90
2017-11-28T03:06:19.283Z,1.00
2017-11-28T03:07:32.386Z,0.93
2017-11-28T03:08:34.850Z,1.10
2017-11-28T03:09:42.774Z,1.08
2017-11-28T03:10:55.131Z,0.90
2017-11-28T03:11:57.587Z,0.90
2017-11-28T03:13:01.691Z,0.90
2017-11-28T03:14:11.539Z,1.00
2017-11-28T03:15:14.783Z,0.90
2017-11-28T03:16:22.999Z,1.23
2017-11-28T03:17:25.473Z,1.00
2017-11-28T03:18:46.239Z,1.00
2017-11-28T03:19:54.144Z,1.00
2017-11-28T03:20:57.473Z,1.00
2017-11-28T03:22:07.440Z,1.00
2017-11-28T03:23:30.622Z,1.23
2017-11-28T03:24:37.543Z,0.98
2017-11-28T03:25:40.760Z,0.90
2017-11-28T03:26:43.230Z,1.10
2017-11-28T03:27:48.541Z,1.20
2017-11-28T03:30:37.012Z,1.15
2017-11-28T03:31:39.455Z,1.10
2017-11-28T03:32:41.963Z,1.05
2017-11-28T03:33:44.410Z,1.20
2017-11-28T03:34:47.653Z,1.10
2017-11-28T03:35:50.254Z,1.15
2017-11-28T03:36:52.716Z,1.27
2017-11-28T03:37:55.924Z,1.10
2017-11-28T03:38:58.384Z,0.90
2017-11-28T03:40:01.600Z,1.10
2017-11-28T03:41:04.043Z,1.10
2017-11-28T03:42:07.295Z,1.02
2017-11-28T03:43:10.503Z,1.00
2017-11-28T03:46:03.850Z,1.37
2017-11-28T03:47:06.312Z,1.25
2017-11-28T03:48:09.955Z,1.15
2017-11-28T03:49:13.167Z,1.20
2017-11-28T03:50:18.432Z,1.05
2017-11-28T03:51:20.906Z,1.30
2017-11-28T03:52:23.443Z,1.20
2017-11-28T03:53:26.689Z,1.08
2017-11-28T03:54:29.992Z,1.25
2017-11-28T03:55:32.448Z,1.25
2017-11-28T03:56:35.698Z,1.25
2017-11-28T03:57:38.940Z,1.20
2017-11-28T03:58:42.162Z,1.50
2017-11-28T03:59:45.370Z,1.40
2017-11-28T04:00:47.819Z,1.40
2017-11-28T04:01:50.293Z,1.45
2017-11-28T04:02:52.754Z,1.33
2017-11-28T04:03:55.211Z,1.37
2017-11-28T04:04:59.143Z,1.45
2017-11-28T04:06:01.623Z,1.50
2017-11-28T04:07:04.087Z,1.30
2017-11-28T04:08:06.539Z,1.70
2017-11-28T04:09:09.000Z,1.52
2017-11-28T04:10:11.452Z,1.15
2017-11-28T04:11:13.931Z,1.33
2017-11-28T04:12:17.167Z,1.30
2017-11-28T04:13:20.400Z,1.50
2017-11-28T04:14:23.636Z,1.58
2017-11-28T04:15:26.195Z,1.37
2017-11-28T04:16:28.664Z,1.40
2017-11-28T04:17:31.134Z,1.50
2017-11-28T04:18:34.355Z,1.50
2017-11-28T04:19:36.891Z,1.70
2017-11-28T04:20:40.123Z,1.50
2017-11-28T04:21:43.393Z,1.55
2017-11-28T04:22:45.839Z,1.65
2017-11-28T04:23:48.326Z,1.52
2017-11-28T04:24:51.537Z,1.60
2017-11-28T04:25:53.989Z,1.23
2017-11-28T04:26:57.276Z,1.45
2017-11-28T04:27:59.714Z,1.35
2017-11-28T04:29:02.170Z,1.60
2017-11-28T04:30:04.637Z,1.50
2017-11-28T04:31:07.153Z,1.40
2017-11-28T04:32:09.640Z,1.60
2017-11-28T04:33:12.090Z,1.50
2017-11-28T04:34:15.322Z,1.75
2017-11-28T04:35:18.664Z,1.60
2017-11-28T04:36:21.113Z,1.60
2017-11-28T04:37:23.645Z,1.65
2017-11-28T04:38:26.112Z,1.62
2017-11-28T04:39:28.568Z,1.83
2017-11-28T04:40:31.812Z,2.10
2017-11-28T04:41:35.034Z,1.67
2017-11-28T04:42:37.580Z,1.98
2017-11-28T04:43:40.836Z,1.42
2017-11-28T04:44:43.294Z,1.75
2017-11-28T04:45:45.765Z,1.50
2017-11-28T04:46:49.029Z,1.40
2017-11-28T04:47:51.517Z,1.50
2017-11-28T04:48:55.470Z,1.67
2017-11-28T04:49:57.929Z,1.77
2017-11-28T04:51:01.163Z,1.60
2017-11-28T04:52:04.436Z,1.55
2017-11-28T04:53:06.915Z,1.70
2017-11-28T04:54:09.377Z,1.83
2017-11-28T04:55:11.836Z,1.98
2017-11-28T04:56:14.409Z,1.80
2017-11-28T04:57:17.694Z,2.00
2017-11-28T04:58:20.188Z,1.70
2017-11-28T04:59:23.436Z,1.90
2017-11-28T05:00:25.886Z,2.22
2017-11-28T05:01:28.366Z,2.12
2017-11-28T05:02:31.624Z,1.95
2017-11-28T05:03:34.148Z,1.65
2017-11-28T05:04:36.713Z,2.10
2017-11-28T05:05:39.158Z,1.50
2017-11-28T05:06:41.647Z,2.03
2017-11-28T05:07:44.229Z,1.92
2017-11-28T05:08:47.501Z,1.85
2017-11-28T05:09:49.996Z,1.80
2017-11-28T05:10:52.448Z,1.70
2017-11-28T05:11:54.964Z,1.75
2017-11-28T05:12:58.188Z,1.80
2017-11-28T05:14:01.416Z,1.60
2017-11-28T05:15:03.985Z,1.65
2017-11-28T05:16:06.462Z,2.28
2017-11-28T05:17:08.939Z,1.55
2017-11-28T05:19:19.260Z,1.80
2017-11-28T05:20:22.549Z,1.80
2017-11-28T05:21:24.996Z,1.70
2017-11-28T05:22:27.468Z,2.05
2017-11-28T05:23:29.949Z,2.10
2017-11-28T05:24:32.408Z,1.85
2017-11-28T05:25:35.646Z,1.90
2017-11-28T05:26:38.214Z,1.62
2017-11-28T05:27:40.689Z,1.83
2017-11-28T05:28:43.148Z,1.80
2017-11-28T05:29:46.400Z,1.90
2017-11-28T05:30:49.625Z,1.73
2017-11-28T05:31:52.082Z,1.85
2017-11-28T05:32:54.558Z,1.80
2017-11-28T05:33:57.008Z,1.90
2017-11-28T05:35:00.240Z,2.08
2017-11-28T05:36:03.475Z,2.00
2017-11-28T05:37:06.692Z,2.20
2017-11-28T05:38:09.169Z,2.10
2017-11-28T05:39:12.379Z,1.90
2017-11-28T05:40:14.864Z,1.85
2017-11-28T05:41:17.325Z,2.00
2017-11-28T05:42:20.153Z,2.17
2017-11-28T05:43:22.624Z,2.35
2017-11-28T05:44:25.132Z,2.10
2017-11-28T05:45:28.984Z,2.00
2017-11-28T05:46:31.440Z,2.08
2017-11-28T05:47:33.906Z,2.08
2017-11-28T05:48:36.358Z,1.92
2017-11-28T05:49:39.629Z,2.00
2017-11-28T05:50:42.096Z,2.10
2017-11-28T05:51:44.594Z,1.92
2017-11-28T05:52:47.046Z,2.10
2017-11-28T05:53:49.492Z,2.20
2017-11-28T05:54:52.726Z,2.00
2017-11-28T05:55:55.185Z,1.95
2017-11-28T05:56:57.672Z,2.00
2017-11-28T05:58:00.131Z,1.90
2017-11-28T05:59:02.655Z,1.90
2017-11-28T06:00:05.124Z,1.90
2017-11-28T06:01:14.062Z,1.92
2017-11-28T06:02:16.657Z,2.10
2017-11-28T06:03:19.132Z,2.08
2017-11-28T06:04:21.592Z,1.77
2017-11-28T06:05:24.061Z,2.22
2017-11-28T06:06:26.506Z,1.77
2017-11-28T06:07:29.022Z,1.95
2017-11-28T06:08:31.474Z,2.17
2017-11-28T06:09:33.929Z,1.67
2017-11-28T06:10:36.404Z,2.00
2017-11-28T06:11:38.870Z,2.30
2017-11-28T06:12:41.333Z,2.20
2017-11-28T06:13:43.803Z,2.10
2017-11-28T06:14:46.268Z,2.00
2017-11-28T06:15:49.557Z,2.00
2017-11-28T06:16:52.029Z,2.20
2017-11-28T06:17:55.285Z,2.15
2017-11-28T06:18:58.512Z,2.05
2017-11-28T06:20:01.723Z,2.45
2017-11-28T06:21:04.208Z,2.70
2017-11-28T06:22:07.488Z,2.95
2017-11-28T06:23:09.968Z,2.97
2017-11-28T06:24:12.443Z,2.60
2017-11-28T06:25:14.900Z,2.30
2017-11-28T06:26:18.152Z,2.72
2017-11-28T06:27:21.378Z,2.50
2017-11-28T06:28:23.851Z,2.20
2017-11-28T06:29:26.367Z,2.17
2017-11-28T06:30:28.852Z,2.25
2017-11-28T06:31:31.315Z,2.40
2017-11-28T06:32:33.771Z,2.15
2017-11-28T06:33:36.247Z,2.25
2017-11-28T06:34:38.724Z,2.33
2017-11-28T06:35:41.277Z,2.00
2017-11-28T06:36:44.712Z,2.15
2017-11-28T06:37:47.281Z,2.15
2017-11-28T06:38:49.816Z,2.30
2017-11-28T06:39:52.337Z,2.00
2017-11-28T06:40:54.807Z,2.25
2017-11-28T06:41:57.245Z,2.08
2017-11-28T06:42:59.740Z,2.30
2017-11-28T06:44:02.227Z,2.50
2017-11-28T06:45:04.699Z,2.33
2017-11-28T06:46:07.168Z,2.65
2017-11-28T06:47:10.411Z,2.28
2017-11-28T06:48:12.885Z,2.90
2017-11-28T06:49:15.369Z,2.55
2017-11-28T06:50:17.866Z,2.78
2017-11-28T06:51:20.407Z,2.53
2017-11-28T06:52:23.682Z,2.40
2017-11-28T06:53:26.420Z,2.00
2017-11-28T06:54:28.920Z,2.33
2017-11-28T06:55:31.444Z,2.40
2017-11-28T06:56:34.644Z,2.10
2017-11-28T06:57:37.876Z,2.17
2017-11-28T06:58:40.341Z,2.00
2017-11-28T06:59:48.009Z,2.30
2017-11-28T07:00:50.552Z,2.00
2017-11-28T07:01:54.222Z,2.28
2017-11-28T07:02:56.941Z,2.30
2017-11-28T07:03:59.386Z,2.33
2017-11-28T07:05:01.904Z,2.08
2017-11-28T07:06:04.373Z,2.10
2017-11-28T07:07:06.848Z,2.20
2017-11-28T07:08:09.377Z,2.47
2017-11-28T07:09:11.820Z,2.50
2017-11-28T07:10:14.328Z,2.80
2017-11-28T07:11:16.784Z,2.92
2017-11-28T07:12:20.074Z,2.60
2017-11-28T07:13:22.581Z,2.60
2017-11-28T07:14:25.047Z,2.70
2017-11-28T07:15:27.536Z,2.50
2017-11-28T07:16:30.011Z,2.70
2017-11-28T07:17:32.463Z,2.65
2017-11-28T07:18:34.920Z,2.47
2017-11-28T07:19:37.735Z,2.42
2017-11-28T07:20:40.222Z,2.25
2017-11-28T07:21:42.691Z,2.20
2017-11-28T07:22:45.193Z,2.22
2017-11-28T07:23:48.413Z,1.90
2017-11-28T07:24:51.573Z,1.90
2017-11-28T07:25:54.826Z,2.05
2017-11-28T07:26:57.287Z,2.15
2017-11-28T07:27:59.793Z,1.90
2017-11-28T07:29:03.328Z,2.20
2017-11-28T07:30:05.789Z,1.67
2017-11-28T07:31:08.253Z,1.90
2017-11-28T07:32:11.471Z,1.73
2017-11-28T07:33:13.927Z,2.20
2017-11-28T07:34:17.376Z,1.70
2017-11-28T07:35:20.622Z,1.42
2017-11-28T07:36:23.850Z,1.50
2017-11-28T07:37:27.076Z,1.50
2017-11-28T07:38:29.553Z,2.00
2017-11-28T07:39:32.008Z,1.60
2017-11-28T07:40:34.479Z,1.52
2017-11-28T07:41:37.077Z,1.52
2017-11-28T07:42:39.545Z,1.50
2017-11-28T07:43:42.019Z,1.90
2017-11-28T07:44:44.495Z,1.62
2017-11-28T07:45:46.951Z,1.60
2017-11-28T07:46:49.465Z,1.73
2017-11-28T07:47:53.143Z,1.55
2017-11-28T07:48:55.763Z,1.60
2017-11-28T07:49:58.226Z,1.70
2017-11-28T07:51:01.441Z,1.80
2017-11-28T07:52:03.933Z,1.95
2017-11-28T07:53:06.436Z,1.60
2017-11-28T07:54:09.331Z,1.60
2017-11-28T07:55:11.788Z,1.50
2017-11-28T07:56:14.285Z,1.70
2017-11-28T07:57:16.745Z,2.08
2017-11-28T07:58:19.230Z,1.62
2017-11-28T07:59:21.679Z,1.77
2017-11-28T08:00:24.911Z,1.80
2017-11-28T08:01:28.171Z,1.67
2017-11-28T08:02:31.392Z,1.85
2017-11-28T08:03:33.979Z,1.45
2017-11-28T08:04:36.469Z,1.80
2017-11-28T08:05:38.961Z,1.80
2017-11-28T08:06:41.440Z,1.60
2017-11-28T08:07:43.996Z,1.83
2017-11-28T08:08:46.457Z,2.20
2017-11-28T08:09:49.712Z,2.28
2017-11-28T08:10:52.941Z,2.00
2017-11-28T08:11:56.165Z,2.35
2017-11-28T08:12:58.625Z,1.67
2017-11-28T08:14:01.111Z,1.87
2017-11-28T08:15:03.598Z,1.90
2017-11-28T08:16:06.072Z,1.92
2017-11-28T08:17:09.332Z,1.83
2017-11-28T08:18:11.837Z,1.85
2017-11-28T08:19:14.294Z,2.00
2017-11-28T08:20:16.771Z,2.10
2017-11-28T08:21:19.248Z,2.35
2017-11-28T08:22:21.739Z,2.37
2017-11-28T08:23:24.969Z,2.20
2017-11-28T08:24:27.436Z,2.35
2017-11-28T08:25:29.908Z,1.95
2017-11-28T08:26:32.383Z,1.90
2017-11-28T08:27:34.858Z,1.98
2017-11-28T08:28:37.583Z,2.78
2017-11-28T08:29:40.301Z,2.00
2017-11-28T08:30:42.782Z,2.10
2017-11-28T08:31:45.351Z,1.70
2017-11-28T08:32:47.804Z,1.73
2017-11-28T08:33:50.284Z,2.00
2017-11-28T08:34:52.765Z,2.00
2017-11-28T08:35:55.216Z,1.83
2017-11-28T08:36:57.681Z,1.90
2017-11-28T08:38:00.143Z,1.87
2017-11-28T08:39:03.416Z,1.90
2017-11-28T08:40:05.868Z,1.77
2017-11-28T08:41:08.346Z,1.90
2017-11-28T08:42:11.581Z,1.60
2017-11-28T08:43:14.794Z,1.30
2017-11-28T08:44:17.276Z,1.70
2017-11-28T08:45:19.839Z,1.40
2017-11-28T08:46:22.386Z,1.65
2017-11-28T08:47:24.859Z,1.35
2017-11-28T08:48:28.229Z,1.50
2017-11-28T08:49:30.718Z,1.55
2017-11-28T08:50:33.967Z,1.62
2017-11-28T08:51:36.434Z,1.70
2017-11-28T08:52:38.894Z,1.70
2017-11-28T08:53:42.108Z,1.90
2017-11-28T08:54:44.618Z,2.03
2017-11-28T08:55:47.081Z,1.60
2017-11-28T08:56:50.336Z,1.60
2017-11-28T08:57:52.797Z,1.80
2017-11-28T08:58:55.279Z,1.27
2017-11-28T08:59:58.527Z,1.77
2017-11-28T09:01:00.991Z,1.65
2017-11-28T09:02:03.467Z,1.60
2017-11-28T09:03:06.705Z,1.77
2017-11-28T09:04:09.939Z,1.80
2017-11-28T09:05:13.214Z,1.50
2017-11-28T09:06:15.676Z,1.73
2017-11-28T09:07:18.138Z,1.87
2017-11-28T09:08:21.370Z,1.52
2017-11-28T09:09:23.844Z,1.77
2017-11-28T09:10:26.328Z,1.30
2017-11-28T09:11:29.537Z,1.58
2017-11-28T09:12:31.993Z,1.52
2017-11-28T09:13:35.236Z,1.80
2017-11-28T09:14:38.461Z,1.67
2017-11-28T09:15:40.917Z,1.40
2017-11-28T09:16:44.140Z,1.40
2017-11-28T09:17:46.609Z,1.87
2017-11-28T09:18:49.087Z,1.35
2017-11-28T09:19:51.556Z,1.30
2017-11-28T09:20:54.065Z,1.40
2017-11-28T09:21:56.587Z,1.30
2017-11-28T09:22:59.826Z,1.40
2017-11-28T09:24:03.059Z,1.42
2017-11-28T09:25:06.429Z,1.40
2017-11-28T09:26:08.906Z,1.40
2017-11-28T09:27:12.152Z,1.60
2017-11-28T09:28:14.630Z,1.52
2017-11-28T09:29:17.169Z,1.30
2017-11-28T09:30:19.674Z,1.62
2017-11-28T09:31:22.138Z,1.42
2017-11-28T09:32:24.587Z,1.67
2017-11-28T09:33:27.055Z,1.90
2017-11-28T09:34:29.521Z,1.90
2017-11-28T09:35:32.788Z,1.37
2017-11-28T09:36:36.056Z,1.35
2017-11-28T09:37:38.523Z,1.67
2017-11-28T09:38:41.027Z,1.60
2017-11-28T09:39:43.507Z,1.30
2017-11-28T09:40:45.959Z,1.77
2017-11-28T09:41:48.467Z,1.52
2017-11-28T09:42:51.819Z,1.50
2017-11-28T09:43:54.272Z,1.42
2017-11-28T09:44:56.724Z,1.40
2017-11-28T09:45:59.206Z,1.30
2017-11-28T09:47:01.676Z,1.30
2017-11-28T09:48:04.241Z,1.60
2017-11-28T09:49:06.764Z,1.50
2017-11-28T09:50:09.240Z,1.45
2017-11-28T09:51:11.724Z,1.80
2017-11-28T09:52:14.203Z,1.70
2017-11-28T09:53:16.663Z,1.40
2017-11-28T09:54:19.119Z,1.37
2017-11-28T09:55:21.613Z,1.50
2017-11-28T09:56:24.213Z,1.52
2017-11-28T09:57:26.675Z,1.50
2017-11-28T09:58:29.146Z,1.27
2017-11-28T09:59:31.619Z,1.62
2017-11-28T10:00:34.125Z,1.58
2017-11-28T10:01:37.380Z,1.40
2017-11-28T10:02:39.964Z,1.83
2017-11-28T10:03:42.427Z,1.92
2017-11-28T10:04:45.671Z,2.03
2017-11-28T10:05:48.990Z,2.12
2017-11-28T10:06:51.454Z,2.30
2017-11-28T10:07:53.932Z,2.30
2017-11-28T10:08:56.404Z,1.80
2017-11-28T10:09:58.868Z,1.90
2017-11-28T10:11:01.397Z,1.75
2017-11-28T10:12:03.851Z,2.00
2017-11-28T10:13:07.134Z,1.80
2017-11-28T10:14:09.589Z,1.62
2017-11-28T10:15:12.044Z,1.75
2017-11-28T10:16:15.288Z,1.67
2017-11-28T10:17:18.521Z,1.70
2017-11-28T10:18:20.987Z,1.70
2017-11-28T10:19:23.444Z,1.60
2017-11-28T10:20:25.937Z,1.90
2017-11-28T10:21:28.417Z,1.50
2017-11-28T10:22:30.903Z,1.40
2017-11-28T10:23:33.356Z,1.58
2017-11-28T10:24:35.914Z,1.25
2017-11-28T10:25:39.144Z,1.60
2017-11-28T10:26:41.625Z,1.50
2017-11-28T10:27:44.224Z,1.30
2017-11-28T10:28:46.673Z,1.23
2017-11-28T10:29:49.209Z,1.45
2017-11-28T10:30:51.679Z,1.42
2017-11-28T10:31:54.143Z,1.20
2017-11-28T10:32:56.639Z,1.30
2017-11-28T10:33:59.887Z,1.40
2017-11-28T10:35:03.105Z,1.10
2017-11-28T10:36:06.332Z,1.30
2017-11-28T10:37:08.795Z,1.30
2017-11-28T10:38:11.434Z,1.20
2017-11-28T10:39:13.956Z,1.20
2017-11-28T10:40:16.463Z,1.20
2017-11-28T10:41:19.687Z,1.30
2017-11-28T10:42:22.137Z,0.90
2017-11-28T10:43:24.660Z,1.10
2017-11-28T10:44:27.890Z,1.00
2017-11-28T10:45:31.150Z,1.10
2017-11-28T10:46:33.610Z,1.05
2017-11-28T10:47:36.083Z,1.17
2017-11-28T10:48:39.293Z,1.35
2017-11-28T10:49:41.807Z,1.23
2017-11-28T10:50:44.290Z,1.10
2017-11-28T10:51:46.953Z,0.95
2017-11-28T10:52:49.463Z,1.02
2017-11-28T10:53:51.948Z,1.10
2017-11-28T10:54:55.211Z,1.20
2017-11-28T10:55:57.694Z,1.10
2017-11-28T10:57:00.147Z,1.20
2017-11-28T10:58:03.411Z,0.98
2017-11-28T10:59:05.890Z,1.20
2017-11-28T11:00:08.372Z,0.90
2017-11-28T11:01:10.874Z,0.80
2017-11-28T11:02:14.138Z,1.30
2017-11-28T11:03:16.591Z,1.20
2017-11-28T11:04:19.073Z,1.27
2017-11-28T11:05:22.314Z,1.20
2017-11-28T11:06:24.783Z,1.30
2017-11-28T11:07:27.319Z,1.50
2017-11-28T11:08:29.869Z,1.20
2017-11-28T11:09:32.384Z,1.95
2017-11-28T11:10:34.950Z,1.70
2017-11-28T11:11:37.433Z,1.00
2017-11-28T11:12:39.901Z,1.10
2017-11-28T11:13:42.443Z,0.90
2017-11-28T11:14:44.936Z,1.15
2017-11-28T11:15:48.196Z,1.25
2017-11-28T11:16:50.673Z,0.88
2017-11-28T11:17:53.189Z,0.90
2017-11-28T11:18:55.694Z,0.80
2017-11-28T11:19:58.219Z,1.00
2017-11-28T11:21:01.648Z,1.00
2017-11-28T11:22:04.117Z,0.80
2017-11-28T11:23:06.685Z,0.80
2017-11-28T11:24:09.167Z,0.80
2017-11-28T11:25:11.724Z,0.80
2017-11-28T11:26:15.018Z,1.12
2017-11-28T11:27:17.477Z,0.95
2017-11-28T11:28:19.947Z,1.02
2017-11-28T11:29:22.452Z,1.20
2017-11-28T11:30:25.687Z,1.12
2017-11-28T11:31:28.928Z,0.80
2017-11-28T11:32:32.153Z,1.20
2017-11-28T11:33:35.434Z,1.30
2017-11-28T11:34:37.925Z,0.90
2017-11-28T11:35:41.160Z,0.90
2017-11-28T11:36:43.617Z,0.70
2017-11-28T11:37:46.824Z,0.95
2017-11-28T11:38:49.285Z,1.00
2017-11-28T11:39:51.769Z,1.15
2017-11-28T11:40:54.333Z,1.05
2017-11-28T11:41:56.779Z,0.80
2017-11-28T11:42:59.254Z,1.05
2017-11-28T11:44:01.720Z,1.33
2017-11-28T11:45:04.244Z,1.00
2017-11-28T11:46:06.737Z,1.20
2017-11-28T11:47:09.210Z,1.20
2017-11-28T11:48:11.683Z,0.90
2017-11-28T11:49:14.246Z,0.95
2017-11-28T11:50:16.706Z,1.10
2017-11-28T11:51:19.176Z,1.20
2017-11-28T11:52:22.418Z,1.20
2017-11-28T11:53:25.766Z,1.30
2017-11-28T11:54:28.226Z,1.10
2017-11-28T11:55:30.704Z,1.40
2017-11-28T11:56:33.930Z,1.20
2017-11-28T11:57:36.430Z,1.23
2017-11-28T11:58:38.977Z,1.40
2017-11-28T11:59:41.448Z,1.50
2017-11-28T12:00:44.862Z,1.10
2017-11-28T12:01:47.411Z,1.10
2017-11-28T12:02:49.859Z,1.42
2017-11-28T12:03:52.337Z,1.60
2017-11-28T12:04:55.589Z,1.27
2017-11-28T12:05:58.829Z,1.12
2017-11-28T12:07:01.276Z,1.23
2017-11-28T12:08:03.781Z,1.20
2017-11-28T12:09:07.038Z,1.35
2017-11-28T12:10:10.279Z,1.33
2017-11-28T12:11:12.740Z,1.25
2017-11-28T12:12:15.233Z,1.35
2017-11-28T12:13:17.761Z,1.12
2017-11-28T12:14:20.229Z,1.10
2017-11-28T12:15:22.708Z,1.20
2017-11-28T12:16:25.209Z,1.17
2017-11-28T12:17:28.448Z,1.27
2017-11-28T12:18:31.693Z,1.00
2017-11-28T12:19:35.059Z,1.30
2017-11-28T12:20:38.275Z,1.50
2017-11-28T12:21:40.845Z,1.50
2017-11-28T12:22:43.345Z,1.17
2017-11-28T12:23:46.616Z,1.20
2017-11-28T12:24:49.067Z,1.70
2017-11-28T12:25:51.547Z,1.37
2017-11-28T12:26:53.998Z,1.30
2017-11-28T12:27:56.486Z,1.30
2017-11-28T12:28:59.703Z,1.70
2017-11-28T12:30:02.181Z,1.50
2017-11-28T12:31:04.704Z,1.50
2017-11-28T12:32:07.171Z,1.80
2017-11-28T12:33:09.635Z,1.60
2017-11-28T12:34:12.110Z,1.60
2017-11-28T12:35:14.558Z,1.23
2017-11-28T12:36:17.068Z,1.70
2017-11-28T12:37:19.541Z,1.70
2017-11-28T12:38:22.076Z,1.27
2017-11-28T12:39:24.571Z,1.30
2017-11-28T12:40:27.115Z,1.35
2017-11-28T12:41:29.592Z,1.23
2017-11-28T12:42:32.164Z,1.80
2017-11-28T12:43:35.577Z,1.30
2017-11-28T12:44:38.556Z,1.65
2017-11-28T12:45:41.015Z,1.60
2017-11-28T12:46:43.473Z,1.90
2017-11-28T12:47:46.734Z,1.45
2017-11-28T12:48:49.188Z,1.50
2017-11-28T12:49:51.672Z,1.60
2017-11-28T12:50:54.922Z,1.60
2017-11-28T12:51:58.149Z,1.42
2017-11-28T12:53:01.364Z,1.70
2017-11-28T12:54:03.834Z,1.50
2017-11-28T12:55:06.656Z,1.50
2017-11-28T12:56:09.898Z,1.60
2017-11-28T12:57:13.144Z,1.75
2017-11-28T12:58:16.397Z,1.50
2017-11-28T12:59:19.653Z,1.40
2017-11-28T13:00:22.176Z,1.33
2017-11-28T13:01:24.639Z,1.50
2017-11-28T13:02:27.092Z,1.73
2017-11-28T13:03:30.367Z,1.60
2017-11-28T13:04:32.840Z,1.70
2017-11-28T13:05:35.319Z,1.90
2017-11-28T13:06:37.780Z,1.55
2017-11-28T13:07:40.353Z,1.65
2017-11-28T13:08:43.588Z,1.60
2017-11-28T13:09:46.816Z,1.70
2017-11-28T13:10:49.299Z,1.65
2017-11-28T13:11:51.820Z,1.85
2017-11-28T13:12:54.279Z,1.70
2017-11-28T13:13:56.749Z,1.50
2017-11-28T13:14:59.282Z,1.60
2017-11-28T13:16:02.157Z,1.35
2017-11-28T13:17:04.883Z,1.60
2017-11-28T13:18:07.339Z,1.85
2017-11-28T13:19:10.575Z,1.80
2017-11-28T13:20:13.029Z,1.50
2017-11-28T13:21:15.492Z,1.60
2017-11-28T13:22:17.967Z,1.85
2017-11-28T13:23:21.196Z,1.70
2017-11-28T13:24:24.450Z,1.90
2017-11-28T13:25:26.953Z,1.73
2017-11-28T13:26:29.502Z,2.50
2017-11-28T13:27:32.718Z,1.73
2017-11-28T13:28:35.210Z,1.83
2017-11-28T13:29:37.663Z,1.50
2017-11-28T13:30:40.130Z,1.42
2017-11-28T13:31:42.647Z,1.50
2017-11-28T13:32:45.126Z,1.65
2017-11-28T13:33:47.613Z,1.65
2017-11-28T13:34:50.061Z,1.70
2017-11-28T13:35:52.698Z,2.00
2017-11-28T13:36:55.237Z,1.83
2017-11-28T13:37:57.731Z,1.62
2017-11-28T13:39:00.229Z,1.83
2017-11-28T13:40:02.719Z,1.58
2017-11-28T13:41:06.093Z,1.50
2017-11-28T13:42:09.320Z,1.65
2017-11-28T13:43:11.804Z,1.40
2017-11-28T13:44:14.311Z,2.10
2017-11-28T13:45:16.791Z,1.70
2017-11-28T13:46:19.293Z,1.50
2017-11-28T13:47:21.755Z,1.90
2017-11-28T13:48:25.025Z,2.20
2017-11-28T13:49:27.502Z,1.60
2017-11-28T13:50:29.992Z,1.87
2017-11-28T13:51:32.456Z,1.87
2017-11-28T13:52:34.949Z,1.87
2017-11-28T13:53:37.397Z,1.83
2017-11-28T13:54:39.864Z,1.80
2017-11-28T13:55:42.445Z,1.80
2017-11-28T13:56:44.927Z,1.98
2017-11-28T13:57:47.389Z,1.80
2017-11-28T13:58:49.920Z,2.00
2017-11-28T13:59:52.391Z,2.20
2017-11-28T14:00:54.900Z,1.73
2017-11-28T14:01:57.438Z,1.83
2017-11-28T14:02:59.895Z,1.60